sensor_id;sensor_type;location;lat;lon;timestamp;pressure;altitude;pressure_sealevel;temperature;humidity
5574;BME280;2563;52.242;7.956;2024-01-07T00:01:24;100207.13;;;0.40;100.00
5574;BME280;2563;52.242;7.956;2024-01-07T00:03:51;100206.22;;;0.35;100.00
5574;BME280;2563;52.242;7.956;2024-01-07T00:06:16;100207.06;;;0.34;100.00
5574;BME280;2563;52.242;7.956;2024-01-07T00:08:41;100206.25;;;0.37;100.00
5574;BME280;2563;52.242;7.956;2024-01-07T00:11:07;100203.72;;;0.37;100.00
5574;BME280;2563;52.242;7.956;2024-01-07T00:13:32;100206.28;;;0.38;100.00
5574;BME280;2563;52.242;7.956;2024-01-07T00:15:57;100208.78;;;0.37;100.00
5574;BME280;2563;52.242;7.956;2024-01-07T00:18:23;100196.16;;;0.40;100.00
5574;BME280;2563;52.242;7.956;2024-01-07T00:20:49;100196.16;;;0.40;100.00
5574;BME280;2563;52.242;7.956;2024-01-07T00:23:15;100192.75;;;0.38;100.00
5574;BME280;2563;52.242;7.956;2024-01-07T00:25:40;100197.75;;;0.32;100.00
5574;BME280;2563;52.242;7.956;2024-01-07T00:28:05;100194.38;;;0.33;100.00
5574;BME280;2563;52.242;7.956;2024-01-07T00:30:31;100189.34;;;0.36;100.00
5574;BME280;2563;52.242;7.956;2024-01-07T00:32:56;100177.50;;;0.32;100.00
5574;BME280;2563;52.242;7.956;2024-01-07T00:35:21;100181.66;;;0.28;100.00
5574;BME280;2563;52.242;7.956;2024-01-07T00:37:47;100184.28;;;0.36;100.00
5574;BME280;2563;52.242;7.956;2024-01-07T00:40:12;100172.31;;;0.23;100.00
5574;BME280;2563;52.242;7.956;2024-01-07T00:42:37;100173.16;;;0.21;100.00
5574;BME280;2563;52.242;7.956;2024-01-07T00:45:03;100175.72;;;0.25;100.00
5574;BME280;2563;52.242;7.956;2024-01-07T00:47:28;100173.19;;;0.25;100.00
5574;BME280;2563;52.242;7.956;2024-01-07T00:49:54;100163.88;;;0.20;100.00
5574;BME280;2563;52.242;7.956;2024-01-07T00:52:19;100165.56;;;0.21;100.00
5574;BME280;2563;52.242;7.956;2024-01-07T00:54:46;100175.63;;;0.15;100.00
5574;BME280;2563;52.242;7.956;2024-01-07T00:57:11;100173.91;;;0.14;100.00
5574;BME280;2563;52.242;7.956;2024-01-07T00:59:37;100173.16;;;0.23;100.00
5574;BME280;2563;52.242;7.956;2024-01-07T01:02:03;100176.50;;;0.19;100.00
5574;BME280;2563;52.242;7.956;2024-01-07T01:04:28;100172.31;;;0.19;100.00
5574;BME280;2563;52.242;7.956;2024-01-07T01:06:54;100168.03;;;0.15;100.00
5574;BME280;2563;52.242;7.956;2024-01-07T01:09:19;100178.16;;;0.15;100.00
5574;BME280;2563;52.242;7.956;2024-01-07T01:11:44;100176.44;;;0.14;100.00
5574;BME280;2563;52.242;7.956;2024-01-07T01:14:10;100190.78;;;0.12;100.00
5574;BME280;2563;52.242;7.956;2024-01-07T01:16:35;100176.44;;;0.13;100.00
5574;BME280;2563;52.242;7.956;2024-01-07T01:19:01;100186.53;;;0.10;100.00
5574;BME280;2563;52.242;7.956;2024-01-07T01:21:26;100187.28;;;0.04;100.00
5574;BME280;2563;52.242;7.956;2024-01-07T01:23:51;100183.09;;;0.06;100.00
5574;BME280;2563;52.242;7.956;2024-01-07T01:26:16;100183.06;;;0.05;100.00
5574;BME280;2563;52.242;7.956;2024-01-07T01:28:42;100194.00;;;0.01;100.00
5574;BME280;2563;52.242;7.956;2024-01-07T01:31:07;100196.47;;;-0.03;100.00
5574;BME280;2563;52.242;7.956;2024-01-07T01:33:32;100198.25;;;0.03;100.00
5574;BME280;2563;52.242;7.956;2024-01-07T01:35:58;100210.09;;;0.07;100.00
5574;BME280;2563;52.242;7.956;2024-01-07T01:38:23;100195.69;;;0.00;100.00
5574;BME280;2563;52.242;7.956;2024-01-07T01:40:53;100198.19;;;-0.02;100.00
5574;BME280;2563;52.242;7.956;2024-01-07T01:43:28;100199.06;;;0.02;100.00
5574;BME280;2563;52.242;7.956;2024-01-07T01:45:55;100209.25;;;0.05;100.00
5574;BME280;2563;52.242;7.956;2024-01-07T01:48:21;100211.63;;;-0.04;100.00
5574;BME280;2563;52.242;7.956;2024-01-07T01:50:47;100207.47;;;-0.02;100.00
5574;BME280;2563;52.242;7.956;2024-01-07T01:53:14;100196.44;;;-0.06;100.00
5574;BME280;2563;52.242;7.956;2024-01-07T01:55:40;100208.25;;;-0.06;100.00
5574;BME280;2563;52.242;7.956;2024-01-07T01:58:05;100218.31;;;-0.08;100.00
5574;BME280;2563;52.242;7.956;2024-01-07T02:00:33;100217.44;;;-0.11;100.00
5574;BME280;2563;52.242;7.956;2024-01-07T02:02:59;100220.03;;;-0.07;100.00
5574;BME280;2563;52.242;7.956;2024-01-07T02:05:26;100222.53;;;-0.08;100.00
5574;BME280;2563;52.242;7.956;2024-01-07T02:07:51;100211.56;;;-0.09;100.00
5574;BME280;2563;52.242;7.956;2024-01-07T02:10:17;100219.13;;;-0.10;100.00
5574;BME280;2563;52.242;7.956;2024-01-07T02:12:42;100225.09;;;-0.05;100.00
5574;BME280;2563;52.242;7.956;2024-01-07T02:15:08;100220.78;;;-0.12;100.00
5574;BME280;2563;52.242;7.956;2024-01-07T02:17:33;100228.38;;;-0.12;100.00
5574;BME280;2563;52.242;7.956;2024-01-07T02:19:59;100225.00;;;-0.13;100.00
5574;BME280;2563;52.242;7.956;2024-01-07T02:22:24;100233.50;;;-0.09;100.00
5574;BME280;2563;52.242;7.956;2024-01-07T02:24:49;100232.63;;;-0.11;100.00
5574;BME280;2563;52.242;7.956;2024-01-07T02:27:15;100232.63;;;-0.11;100.00
5574;BME280;2563;52.242;7.956;2024-01-07T02:29:40;100229.19;;;-0.16;100.00
5574;BME280;2563;52.242;7.956;2024-01-07T02:32:06;100237.69;;;-0.11;100.00
5574;BME280;2563;52.242;7.956;2024-01-07T02:34:31;100244.44;;;-0.10;100.00
5574;BME280;2563;52.242;7.956;2024-01-07T02:36:56;100241.91;;;-0.12;100.00
5574;BME280;2563;52.242;7.956;2024-01-07T02:39:22;100236.69;;;-0.19;100.00
5574;BME280;2563;52.242;7.956;2024-01-07T02:41:48;100240.91;;;-0.22;100.00
5574;BME280;2563;52.242;7.956;2024-01-07T02:44:13;100245.25;;;-0.14;100.00
5574;BME280;2563;52.242;7.956;2024-01-07T02:46:38;100246.00;;;-0.18;100.00
5574;BME280;2563;52.242;7.956;2024-01-07T02:49:04;100245.09;;;-0.22;100.00
5574;BME280;2563;52.242;7.956;2024-01-07T02:51:29;100250.97;;;-0.25;100.00
5574;BME280;2563;52.242;7.956;2024-01-07T02:53:54;100245.16;;;-0.17;100.00
5574;BME280;2563;52.242;7.956;2024-01-07T02:56:20;100251.88;;;-0.19;100.00
5574;BME280;2563;52.242;7.956;2024-01-07T02:58:45;100251.03;;;-0.22;100.00
5574;BME280;2563;52.242;7.956;2024-01-07T03:01:10;100247.63;;;-0.24;100.00
5574;BME280;2563;52.242;7.956;2024-01-07T03:03:36;100255.19;;;-0.25;100.00
5574;BME280;2563;52.242;7.956;2024-01-07T03:06:02;100248.50;;;-0.22;100.00
5574;BME280;2563;52.242;7.956;2024-01-07T03:08:28;100254.41;;;-0.21;100.00
5574;BME280;2563;52.242;7.956;2024-01-07T03:10:54;100263.59;;;-0.25;100.00
5574;BME280;2563;52.242;7.956;2024-01-07T03:13:19;100268.66;;;-0.26;100.00
5574;BME280;2563;52.242;7.956;2024-01-07T03:15:45;100258.59;;;-0.23;100.00
5574;BME280;2563;52.242;7.956;2024-01-07T03:18:10;100264.53;;;-0.19;100.00
5574;BME280;2563;52.242;7.956;2024-01-07T03:20:35;100261.16;;;-0.22;100.00
5574;BME280;2563;52.242;7.956;2024-01-07T03:23:01;100264.50;;;-0.23;100.00
5574;BME280;2563;52.242;7.956;2024-01-07T03:25:26;100264.50;;;-0.23;100.00
5574;BME280;2563;52.242;7.956;2024-01-07T03:27:52;100271.31;;;-0.18;100.00
5574;BME280;2563;52.242;7.956;2024-01-07T03:30:17;100269.50;;;-0.26;100.00
5574;BME280;2563;52.242;7.956;2024-01-07T03:32:42;100276.28;;;-0.23;100.00
5574;BME280;2563;52.242;7.956;2024-01-07T03:35:08;100276.31;;;-0.20;100.00
5574;BME280;2563;52.242;7.956;2024-01-07T03:37:34;100269.53;;;-0.23;100.00
5574;BME280;2563;52.242;7.956;2024-01-07T03:39:59;100284.66;;;-0.27;100.00
5574;BME280;2563;52.242;7.956;2024-01-07T03:42:25;100277.91;;;-0.27;100.00
5574;BME280;2563;52.242;7.956;2024-01-07T03:44:50;100288.91;;;-0.26;100.00
5574;BME280;2563;52.242;7.956;2024-01-07T03:47:15;100299.84;;;-0.26;100.00
5574;BME280;2563;52.242;7.956;2024-01-07T03:49:41;100293.06;;;-0.28;100.00
5574;BME280;2563;52.242;7.956;2024-01-07T03:52:07;100298.94;;;-0.29;100.00
5574;BME280;2563;52.242;7.956;2024-01-07T03:54:32;100293.00;;;-0.33;100.00
5574;BME280;2563;52.242;7.956;2024-01-07T03:56:58;100293.91;;;-0.28;100.00
5574;BME280;2563;52.242;7.956;2024-01-07T03:59:23;100297.28;;;-0.27;100.00
5574;BME280;2563;52.242;7.956;2024-01-07T04:01:53;100300.66;;;-0.28;100.00
5574;BME280;2563;52.242;7.956;2024-01-07T04:04:19;100303.97;;;-0.32;100.00
5574;BME280;2563;52.242;7.956;2024-01-07T04:06:44;100302.34;;;-0.27;100.00
5574;BME280;2563;52.242;7.956;2024-01-07T04:09:10;100297.19;;;-0.35;100.00
5574;BME280;2563;52.242;7.956;2024-01-07T04:11:42;100302.22;;;-0.35;100.00
5574;BME280;2563;52.242;7.956;2024-01-07T04:14:08;100319.09;;;-0.34;100.00
5574;BME280;2563;52.242;7.956;2024-01-07T04:16:33;100313.22;;;-0.33;100.00
5574;BME280;2563;52.242;7.956;2024-01-07T04:18:59;100315.00;;;-0.29;100.00
5574;BME280;2563;52.242;7.956;2024-01-07T04:21:24;100325.88;;;-0.33;100.00
5574;BME280;2563;52.242;7.956;2024-01-07T04:23:49;100320.81;;;-0.33;100.00
5574;BME280;2563;52.242;7.956;2024-01-07T04:26:15;100328.41;;;-0.33;100.00
5574;BME280;2563;52.242;7.956;2024-01-07T04:28:41;100325.03;;;-0.32;100.00
5574;BME280;2563;52.242;7.956;2024-01-07T04:31:07;100330.94;;;-0.33;100.00
5574;BME280;2563;52.242;7.956;2024-01-07T04:33:32;100326.69;;;-0.34;100.00
5574;BME280;2563;52.242;7.956;2024-01-07T04:35:58;100325.03;;;-0.32;100.00
5574;BME280;2563;52.242;7.956;2024-01-07T04:38:24;100332.53;;;-0.36;100.00
5574;BME280;2563;52.242;7.956;2024-01-07T04:40:50;100333.34;;;-0.39;100.00
5574;BME280;2563;52.242;7.956;2024-01-07T04:43:17;100334.22;;;-0.37;100.00
5574;BME280;2563;52.242;7.956;2024-01-07T04:45:42;100344.41;;;-0.32;100.00
5574;BME280;2563;52.242;7.956;2024-01-07T04:48:08;100360.22;;;-0.44;100.00
5574;BME280;2563;52.242;7.956;2024-01-07T04:50:33;100348.44;;;-0.45;100.00
5574;BME280;2563;52.242;7.956;2024-01-07T04:52:58;100341.66;;;-0.46;100.00
5574;BME280;2563;52.242;7.956;2024-01-07T04:55:23;100355.13;;;-0.47;100.00
5574;BME280;2563;52.242;7.956;2024-01-07T04:57:49;100352.50;;;-0.52;100.00
5574;BME280;2563;52.242;7.956;2024-01-07T05:00:15;100356.69;;;-0.54;100.00
5574;BME280;2563;52.242;7.956;2024-01-07T05:02:40;100367.56;;;-0.58;100.00
5574;BME280;2563;52.242;7.956;2024-01-07T05:05:07;100372.69;;;-0.55;100.00
5574;BME280;2563;52.242;7.956;2024-01-07T05:07:33;100367.63;;;-0.55;100.00
5574;BME280;2563;52.242;7.956;2024-01-07T05:09:58;100378.41;;;-0.63;100.00
5574;BME280;2563;52.242;7.956;2024-01-07T05:12:23;100375.06;;;-0.62;100.00
5574;BME280;2563;52.242;7.956;2024-01-07T05:14:50;100377.50;;;-0.67;100.00
5574;BME280;2563;52.242;7.956;2024-01-07T05:17:16;100390.13;;;-0.69;100.00
5574;BME280;2563;52.242;7.956;2024-01-07T05:19:41;100390.03;;;-0.73;100.00
5574;BME280;2563;52.242;7.956;2024-01-07T05:22:06;100392.56;;;-0.73;100.00
5574;BME280;2563;52.242;7.956;2024-01-07T05:24:32;100401.81;;;-0.74;100.00
5574;BME280;2563;52.242;7.956;2024-01-07T05:26:57;100401.81;;;-0.74;100.00
5574;BME280;2563;52.242;7.956;2024-01-07T05:29:23;100406.00;;;-0.76;100.00
5574;BME280;2563;52.242;7.956;2024-01-07T05:31:48;100408.56;;;-0.73;100.00
5574;BME280;2563;52.242;7.956;2024-01-07T05:34:13;100414.38;;;-0.78;100.00
5574;BME280;2563;52.242;7.956;2024-01-07T05:36:39;100421.66;;;-0.92;100.00
5574;BME280;2563;52.242;7.956;2024-01-07T05:39:04;100422.47;;;-0.95;100.00
5574;BME280;2563;52.242;7.956;2024-01-07T05:41:31;100426.66;;;-0.95;100.00
5574;BME280;2563;52.242;7.956;2024-01-07T05:43:57;100431.63;;;-0.98;100.00
5574;BME280;2563;52.242;7.956;2024-01-07T05:46:22;100431.56;;;-1.01;100.00
5574;BME280;2563;52.242;7.956;2024-01-07T05:48:48;100437.34;;;-1.07;100.00
5574;BME280;2563;52.242;7.956;2024-01-07T05:51:14;100446.66;;;-1.04;100.00
5574;BME280;2563;52.242;7.956;2024-01-07T05:53:41;100442.41;;;-1.07;100.00
5574;BME280;2563;52.242;7.956;2024-01-07T05:56:07;100449.84;;;-1.15;100.00
5574;BME280;2563;52.242;7.956;2024-01-07T05:58:32;100462.50;;;-1.12;100.00
5574;BME280;2563;52.242;7.956;2024-01-07T06:00:58;100461.63;;;-1.14;100.00
5574;BME280;2563;52.242;7.956;2024-01-07T06:03:23;100468.38;;;-1.13;100.00
5574;BME280;2563;52.242;7.956;2024-01-07T06:05:49;100470.03;;;-1.15;100.00
5574;BME280;2563;52.242;7.956;2024-01-07T06:08:14;100480.94;;;-1.16;100.00
5574;BME280;2563;52.242;7.956;2024-01-07T06:10:40;100471.63;;;-1.18;100.00
5574;BME280;2563;52.242;7.956;2024-01-07T06:13:06;100485.97;;;-1.17;100.00
5574;BME280;2563;52.242;7.956;2024-01-07T06:15:31;100481.78;;;-1.17;100.00
5574;BME280;2563;52.242;7.956;2024-01-07T06:17:57;100489.34;;;-1.17;100.00
5574;BME280;2563;52.242;7.956;2024-01-07T06:20:23;100491.72;;;-1.23;100.00
5574;BME280;2563;52.242;7.956;2024-01-07T06:22:48;100498.41;;;-1.25;100.00
5574;BME280;2563;52.242;7.956;2024-01-07T06:25:13;100506.66;;;-1.32;100.00
5574;BME280;2563;52.242;7.956;2024-01-07T06:27:39;100522.59;;;-1.35;100.00
5574;BME280;2563;52.242;7.956;2024-01-07T06:30:05;100527.34;;;-1.47;100.00
5574;BME280;2563;52.242;7.956;2024-01-07T06:32:31;100538.16;;;-1.53;100.00
5574;BME280;2563;52.242;7.956;2024-01-07T06:34:57;100543.19;;;-1.53;100.00
5574;BME280;2563;52.242;7.956;2024-01-07T06:37:23;100558.91;;;-1.63;100.00
5574;BME280;2563;52.242;7.956;2024-01-07T06:39:48;100573.31;;;-1.59;100.00
5574;BME280;2563;52.242;7.956;2024-01-07T06:42:14;100580.94;;;-1.57;100.00
5574;BME280;2563;52.242;7.956;2024-01-07T06:44:39;100591.06;;;-1.56;100.00
5574;BME280;2563;52.242;7.956;2024-01-07T06:47:04;100606.97;;;-1.60;100.00
5574;BME280;2563;52.242;7.956;2024-01-07T06:49:30;100611.28;;;-1.54;100.00
5574;BME280;2563;52.242;7.956;2024-01-07T06:51:55;100633.16;;;-1.55;100.00
5574;BME280;2563;52.242;7.956;2024-01-07T06:54:20;100629.94;;;-1.49;100.00
5574;BME280;2563;52.242;7.956;2024-01-07T06:56:46;100630.75;;;-1.50;100.00
5574;BME280;2563;52.242;7.956;2024-01-07T06:59:11;100636.72;;;-1.46;100.00
5574;BME280;2563;52.242;7.956;2024-01-07T07:01:37;100639.19;;;-1.50;100.00
5574;BME280;2563;52.242;7.956;2024-01-07T07:04:03;100641.91;;;-1.42;100.00
5574;BME280;2563;52.242;7.956;2024-01-07T07:06:29;100646.16;;;-1.41;100.00
5574;BME280;2563;52.242;7.956;2024-01-07T07:08:54;100643.53;;;-1.44;100.00
5574;BME280;2563;52.242;7.956;2024-01-07T07:11:19;100634.44;;;-1.37;100.00
5574;BME280;2563;52.242;7.956;2024-01-07T07:13:45;100641.22;;;-1.36;100.00
5574;BME280;2563;52.242;7.956;2024-01-07T07:16:10;100643.81;;;-1.33;100.00
5574;BME280;2563;52.242;7.956;2024-01-07T07:18:35;100629.47;;;-1.34;100.00
5574;BME280;2563;52.242;7.956;2024-01-07T07:21:01;100629.63;;;-1.28;100.00
5574;BME280;2563;52.242;7.956;2024-01-07T07:23:26;100628.00;;;-1.26;100.00
5574;BME280;2563;52.242;7.956;2024-01-07T07:25:51;100616.88;;;-1.33;100.00
5574;BME280;2563;52.242;7.956;2024-01-07T07:28:17;100621.16;;;-1.30;100.00
5574;BME280;2563;52.242;7.956;2024-01-07T07:30:43;100614.41;;;-1.31;100.00
5574;BME280;2563;52.242;7.956;2024-01-07T07:33:08;100608.53;;;-1.32;100.00
5574;BME280;2563;52.242;7.956;2024-01-07T07:35:33;100606.84;;;-1.31;100.00
5574;BME280;2563;52.242;7.956;2024-01-07T07:37:59;100616.00;;;-1.35;100.00
5574;BME280;2563;52.242;7.956;2024-01-07T07:40:24;100622.88;;;-1.29;100.00
5574;BME280;2563;52.242;7.956;2024-01-07T07:42:51;100626.13;;;-1.33;100.00
5574;BME280;2563;52.242;7.956;2024-01-07T07:45:16;100642.97;;;-1.32;100.00
5574;BME280;2563;52.242;7.956;2024-01-07T07:47:41;100638.84;;;-1.30;100.00
5574;BME280;2563;52.242;7.956;2024-01-07T07:50:10;100649.66;;;-1.34;100.00
5574;BME280;2563;52.242;7.956;2024-01-07T07:52:35;100649.66;;;-1.34;100.00
5574;BME280;2563;52.242;7.956;2024-01-07T07:55:01;100662.38;;;-1.31;100.00
5574;BME280;2563;52.242;7.956;2024-01-07T07:57:26;100664.81;;;-1.34;100.00
5574;BME280;2563;52.242;7.956;2024-01-07T07:59:52;100663.13;;;-1.35;100.00
5574;BME280;2563;52.242;7.956;2024-01-07T08:02:18;100671.66;;;-1.30;100.00
5574;BME280;2563;52.242;7.956;2024-01-07T08:04:43;100680.91;;;-1.31;100.00
5574;BME280;2563;52.242;7.956;2024-01-07T08:07:09;100685.09;;;-1.31;100.00
5574;BME280;2563;52.242;7.956;2024-01-07T08:09:35;100693.53;;;-1.31;100.00
5574;BME280;2563;52.242;7.956;2024-01-07T08:12:04;100712.06;;;-1.30;100.00
5574;BME280;2563;52.242;7.956;2024-01-07T08:14:30;100720.47;;;-1.31;100.00
5574;BME280;2563;52.242;7.956;2024-01-07T08:16:56;100724.75;;;-1.27;100.00
5574;BME280;2563;52.242;7.956;2024-01-07T08:19:21;100734.91;;;-1.25;100.00
5574;BME280;2563;52.242;7.956;2024-01-07T08:21:46;100750.91;;;-1.25;100.00
5574;BME280;2563;52.242;7.956;2024-01-07T08:24:12;100759.38;;;-1.23;100.00
5574;BME280;2563;52.242;7.956;2024-01-07T08:26:37;100763.53;;;-1.25;100.00
5574;BME280;2563;52.242;7.956;2024-01-07T08:29:03;100774.47;;;-1.26;100.00
5574;BME280;2563;52.242;7.956;2024-01-07T08:31:28;100775.91;;;-1.34;100.00
5574;BME280;2563;52.242;7.956;2024-01-07T08:33:53;100797.00;;;-1.32;100.00
5574;BME280;2563;52.242;7.956;2024-01-07T08:36:19;100805.44;;;-1.32;100.00
5574;BME280;2563;52.242;7.956;2024-01-07T08:38:44;100824.88;;;-1.29;100.00
5574;BME280;2563;52.242;7.956;2024-01-07T08:41:09;100841.72;;;-1.28;100.00
5574;BME280;2563;52.242;7.956;2024-01-07T08:43:35;100851.75;;;-1.31;100.00
5574;BME280;2563;52.242;7.956;2024-01-07T08:46:00;100858.59;;;-1.27;100.00
5574;BME280;2563;52.242;7.956;2024-01-07T08:48:26;100868.56;;;-1.32;100.00
5574;BME280;2563;52.242;7.956;2024-01-07T08:50:51;100884.44;;;-1.36;100.00
5574;BME280;2563;52.242;7.956;2024-01-07T08:53:17;100900.44;;;-1.35;100.00
5574;BME280;2563;52.242;7.956;2024-01-07T08:55:43;100920.63;;;-1.35;100.00
5574;BME280;2563;52.242;7.956;2024-01-07T08:58:08;100942.44;;;-1.39;100.00
5574;BME280;2563;52.242;7.956;2024-01-07T09:00:34;100959.34;;;-1.36;100.00
5574;BME280;2563;52.242;7.956;2024-01-07T09:02:59;100974.56;;;-1.33;100.00
5574;BME280;2563;52.242;7.956;2024-01-07T09:05:24;100991.41;;;-1.32;100.00
5574;BME280;2563;52.242;7.956;2024-01-07T09:07:50;100998.09;;;-1.34;100.00
5574;BME280;2563;52.242;7.956;2024-01-07T09:10:15;101013.34;;;-1.31;100.00
5574;BME280;2563;52.242;7.956;2024-01-07T09:12:41;101025.84;;;-1.34;100.00
5574;BME280;2563;52.242;7.956;2024-01-07T09:15:07;101032.69;;;-1.32;100.00
5574;BME280;2563;52.242;7.956;2024-01-07T09:17:36;101040.22;;;-1.33;100.00
5574;BME280;2563;52.242;7.956;2024-01-07T09:20:03;101066.88;;;-1.41;100.00
5574;BME280;2563;52.242;7.956;2024-01-07T09:22:30;101085.56;;;-1.36;100.00
5574;BME280;2563;52.242;7.956;2024-01-07T09:24:56;101095.69;;;-1.36;100.00
5574;BME280;2563;52.242;7.956;2024-01-07T09:27:21;101107.16;;;-1.44;100.00
5574;BME280;2563;52.242;7.956;2024-01-07T09:29:47;101125.66;;;-1.45;100.00
5574;BME280;2563;52.242;7.956;2024-01-07T09:32:12;101131.91;;;-1.34;100.00
5574;BME280;2563;52.242;7.956;2024-01-07T09:34:37;101142.81;;;-1.35;100.00
5574;BME280;2563;52.242;7.956;2024-01-07T09:37:03;101141.13;;;-1.36;100.00
5574;BME280;2563;52.242;7.956;2024-01-07T09:39:28;101151.78;;;-1.19;100.00
5574;BME280;2563;52.242;7.956;2024-01-07T09:41:53;101157.47;;;-0.99;100.00
5574;BME280;2563;52.242;7.956;2024-01-07T09:44:19;101175.63;;;-0.86;100.00
5574;BME280;2563;52.242;7.956;2024-01-07T09:46:44;101190.78;;;-0.86;100.00
5574;BME280;2563;52.242;7.956;2024-01-07T09:49:14;101198.97;;;-0.93;100.00
5574;BME280;2563;52.242;7.956;2024-01-07T09:51:40;101213.47;;;-0.87;100.00
5574;BME280;2563;52.242;7.956;2024-01-07T09:54:09;101228.22;;;-0.99;100.00
5574;BME280;2563;52.242;7.956;2024-01-07T09:56:50;101243.88;;;-0.86;100.00
5574;BME280;2563;52.242;7.956;2024-01-07T09:59:17;101252.28;;;-0.85;100.00
5574;BME280;2563;52.242;7.956;2024-01-07T10:01:44;101269.28;;;-0.81;100.00
5574;BME280;2563;52.242;7.956;2024-01-07T10:04:09;101278.41;;;-0.84;100.00
5574;BME280;2563;52.242;7.956;2024-01-07T10:06:35;101280.59;;;-0.70;100.00
5574;BME280;2563;52.242;7.956;2024-01-07T10:09:00;101305.09;;;-0.69;100.00
5574;BME280;2563;52.242;7.956;2024-01-07T10:11:25;101311.22;;;-0.62;100.00
5574;BME280;2563;52.242;7.956;2024-01-07T10:13:50;101312.94;;;-0.85;100.00
5574;BME280;2563;52.242;7.956;2024-01-07T10:16:19;101326.81;;;-0.74;100.00
5574;BME280;2563;52.242;7.956;2024-01-07T10:18:44;101328.44;;;-0.76;100.00
5574;BME280;2563;52.242;7.956;2024-01-07T10:21:09;101331.88;;;-0.74;100.00
5574;BME280;2563;52.242;7.956;2024-01-07T10:23:35;101340.38;;;-0.72;100.00
5574;BME280;2563;52.242;7.956;2024-01-07T10:26:00;101331.31;;;-0.65;100.00
5574;BME280;2563;52.242;7.956;2024-01-07T10:28:27;101342.94;;;-0.70;100.00
5574;BME280;2563;52.242;7.956;2024-01-07T10:30:52;101350.34;;;-0.75;100.00
5574;BME280;2563;52.242;7.956;2024-01-07T10:33:18;101350.16;;;-0.81;100.00
5574;BME280;2563;52.242;7.956;2024-01-07T10:36:02;101340.25;;;-0.75;100.00
5574;BME280;2563;52.242;7.956;2024-01-07T10:38:31;101334.22;;;-0.54;100.00
5574;BME280;2563;52.242;7.956;2024-01-07T10:40:59;101340.47;;;-0.69;100.00
5574;BME280;2563;52.242;7.956;2024-01-07T10:43:26;101345.72;;;-0.62;100.00
5574;BME280;2563;52.242;7.956;2024-01-07T10:45:55;101338.13;;;-0.62;100.00
5574;BME280;2563;52.242;7.956;2024-01-07T10:48:21;101350.50;;;-0.72;100.00
5574;BME280;2563;52.242;7.956;2024-01-07T10:50:50;101351.22;;;-0.50;100.00
5574;BME280;2563;52.242;7.956;2024-01-07T10:53:21;101360.41;;;-0.52;100.00
5574;BME280;2563;52.242;7.956;2024-01-07T10:55:54;101349.91;;;-0.39;100.00
5574;BME280;2563;52.242;7.956;2024-01-07T10:58:24;101351.94;;;-0.53;100.00
5574;BME280;2563;52.242;7.956;2024-01-07T11:00:51;101364.47;;;-0.57;100.00
5574;BME280;2563;52.242;7.956;2024-01-07T11:03:29;101374.25;;;-0.67;100.00
5574;BME280;2563;52.242;7.956;2024-01-07T11:05:58;101375.88;;;-0.69;100.00
5574;BME280;2563;52.242;7.956;2024-01-07T11:08:36;101369.28;;;-0.63;100.00
5574;BME280;2563;52.242;7.956;2024-01-07T11:11:25;101376.28;;;-0.56;100.00
5574;BME280;2563;52.242;7.956;2024-01-07T11:13:51;101388.88;;;-0.58;100.00
5574;BME280;2563;52.242;7.956;2024-01-07T11:16:41;101405.94;;;-0.52;100.00
5574;BME280;2563;52.242;7.956;2024-01-07T11:19:06;101421.03;;;-0.54;100.00
5574;BME280;2563;52.242;7.956;2024-01-07T11:21:31;101421.03;;;-0.54;100.00
5574;BME280;2563;52.242;7.956;2024-01-07T11:23:57;101438.47;;;-0.61;100.00
5574;BME280;2563;52.242;7.956;2024-01-07T11:26:22;101443.28;;;-0.45;100.00
5574;BME280;2563;52.242;7.956;2024-01-07T11:31:15;101436.44;;;-0.24;100.00
5574;BME280;2563;52.242;7.956;2024-01-07T11:33:46;101469.47;;;-0.43;100.00
5574;BME280;2563;52.242;7.956;2024-01-07T11:36:12;101462.34;;;-0.29;100.00
5574;BME280;2563;52.242;7.956;2024-01-07T11:38:52;101467.97;;;-0.38;100.00
5574;BME280;2563;52.242;7.956;2024-01-07T11:41:20;101470.75;;;-0.30;100.00
5574;BME280;2563;52.242;7.956;2024-01-07T11:43:56;101476.25;;;-0.42;100.00
5574;BME280;2563;52.242;7.956;2024-01-07T11:46:23;101485.34;;;-0.23;100.00
5574;BME280;2563;52.242;7.956;2024-01-07T11:48:52;101490.25;;;-0.28;100.00
5574;BME280;2563;52.242;7.956;2024-01-07T11:51:18;101490.75;;;-0.12;100.00
5574;BME280;2563;52.242;7.956;2024-01-07T11:53:47;101499.59;;;-0.25;100.00
5574;BME280;2563;52.242;7.956;2024-01-07T11:56:13;101496.81;;;-0.33;100.00
5574;BME280;2563;52.242;7.956;2024-01-07T11:58:40;101494.44;;;-0.28;100.00
5574;BME280;2563;52.242;7.956;2024-01-07T12:01:06;101497.00;;;-0.27;100.00
5574;BME280;2563;52.242;7.956;2024-01-07T12:03:31;101497.59;;;-0.34;100.00
5574;BME280;2563;52.242;7.956;2024-01-07T12:05:56;101499.44;;;-0.30;100.00
5574;BME280;2563;52.242;7.956;2024-01-07T12:08:22;101494.97;;;-0.37;100.00
5574;BME280;2563;52.242;7.956;2024-01-07T12:10:47;101493.59;;;-0.29;100.00
5574;BME280;2563;52.242;7.956;2024-01-07T12:13:13;101502.06;;;-0.27;100.00
5574;BME280;2563;52.242;7.956;2024-01-07T12:15:39;101486.59;;;-0.12;100.00
5574;BME280;2563;52.242;7.956;2024-01-07T12:18:04;101486.28;;;-0.21;100.00
5574;BME280;2563;52.242;7.956;2024-01-07T12:20:30;101488.53;;;-0.29;100.00
5574;BME280;2563;52.242;7.956;2024-01-07T12:22:56;101493.03;;;-0.20;100.00
5574;BME280;2563;52.242;7.956;2024-01-07T12:25:23;101486.03;;;-0.27;100.00
5574;BME280;2563;52.242;7.956;2024-01-07T12:27:51;101488.78;;;-0.21;100.00
5574;BME280;2563;52.242;7.956;2024-01-07T12:30:20;101489.50;;;-0.25;100.00
5574;BME280;2563;52.242;7.956;2024-01-07T12:32:46;101486.78;;;-0.30;100.00
5574;BME280;2563;52.242;7.956;2024-01-07T12:35:11;101480.81;;;-0.32;100.00
5574;BME280;2563;52.242;7.956;2024-01-07T12:37:37;101483.25;;;-0.35;100.00
5574;BME280;2563;52.242;7.956;2024-01-07T12:40:03;101477.44;;;-0.32;100.00
5574;BME280;2563;52.242;7.956;2024-01-07T12:42:29;101469.03;;;-0.31;100.00
5574;BME280;2563;52.242;7.956;2024-01-07T12:44:55;101463.00;;;-0.35;100.00
5574;BME280;2563;52.242;7.956;2024-01-07T12:47:20;101453.13;;;-0.29;100.00
5574;BME280;2563;52.242;7.956;2024-01-07T12:49:45;101444.38;;;-0.37;100.00
5574;BME280;2563;52.242;7.956;2024-01-07T12:52:11;101447.75;;;-0.38;100.00
5574;BME280;2563;52.242;7.956;2024-01-07T12:54:38;101439.44;;;-0.34;100.00
5574;BME280;2563;52.242;7.956;2024-01-07T12:57:03;101434.50;;;-0.31;100.00
5574;BME280;2563;52.242;7.956;2024-01-07T12:59:29;101429.63;;;-0.25;100.00